sensor_id;sensor_type;location;lat;lon;timestamp;noise_LAeq;noise_LA_min;noise_LA_max;noise_LA01;noise_LA95
64545;Laerm;50936;51.660;5.616;2022-11-23T00:01:36;54.08;41.75;72.11;;
64545;Laerm;50936;51.660;5.616;2022-11-23T00:04:10;63.40;42.09;84.28;;
64545;Laerm;50936;51.660;5.616;2022-11-23T00:06:38;57.58;41.61;76.82;;
64545;Laerm;50936;51.660;5.616;2022-11-23T00:09:09;53.88;42.09;75.50;;
64545;Laerm;50936;51.660;5.616;2022-11-23T00:11:39;57.07;40.89;78.13;;
64545;Laerm;50936;51.660;5.616;2022-11-23T00:14:09;59.61;42.09;78.10;;
64545;Laerm;50936;51.660;5.616;2022-11-23T00:16:36;50.70;42.03;70.56;;
64545;Laerm;50936;51.660;5.616;2022-11-23T00:19:03;49.68;41.96;67.22;;
64545;Laerm;50936;51.660;5.616;2022-11-23T00:21:31;53.06;41.46;69.92;;
64545;Laerm;50936;51.660;5.616;2022-11-23T00:23:58;51.45;42.41;74.03;;
64545;Laerm;50936;51.660;5.616;2022-11-23T00:26:26;56.31;41.61;76.75;;
64545;Laerm;50936;51.660;5.616;2022-11-23T00:28:53;53.45;41.96;75.11;;
64545;Laerm;50936;51.660;5.616;2022-11-23T00:31:24;47.76;41.89;64.59;;
64545;Laerm;50936;51.660;5.616;2022-11-23T00:33:53;46.75;41.06;65.23;;
64545;Laerm;50936;51.660;5.616;2022-11-23T00:36:23;45.60;41.46;66.94;;
64545;Laerm;50936;51.660;5.616;2022-11-23T00:38:54;47.73;41.46;64.89;;
64545;Laerm;50936;51.660;5.616;2022-11-23T00:41:24;49.01;41.30;73.04;;
64545;Laerm;50936;51.660;5.616;2022-11-23T00:43:52;63.75;41.89;84.40;;
64545;Laerm;50936;51.660;5.616;2022-11-23T00:46:22;56.46;42.35;73.58;;
64545;Laerm;50936;51.660;5.616;2022-11-23T00:48:52;59.89;41.14;83.95;;
64545;Laerm;50936;51.660;5.616;2022-11-23T00:51:27;55.91;41.61;74.15;;
64545;Laerm;50936;51.660;5.616;2022-11-23T00:53:55;54.12;41.53;71.82;;
64545;Laerm;50936;51.660;5.616;2022-11-23T00:56:25;53.77;41.68;72.84;;
64545;Laerm;50936;51.660;5.616;2022-11-23T00:58:54;50.12;41.30;69.10;;
64545;Laerm;50936;51.660;5.616;2022-11-23T01:01:25;50.97;41.14;71.59;;
64545;Laerm;50936;51.660;5.616;2022-11-23T01:03:56;50.86;41.68;68.73;;
64545;Laerm;50936;51.660;5.616;2022-11-23T01:06:35;53.55;41.22;72.88;;
64545;Laerm;50936;51.660;5.616;2022-11-23T01:09:05;54.09;41.06;75.84;;
64545;Laerm;50936;51.660;5.616;2022-11-23T01:11:34;57.35;42.16;81.31;;
64545;Laerm;50936;51.660;5.616;2022-11-23T01:14:01;57.76;41.38;83.09;;
64545;Laerm;50936;51.660;5.616;2022-11-23T01:16:35;58.23;41.96;78.19;;
64545;Laerm;50936;51.660;5.616;2022-11-23T01:19:06;54.55;41.30;73.23;;
64545;Laerm;50936;51.660;5.616;2022-11-23T01:21:34;55.33;41.53;73.61;;
64545;Laerm;50936;51.660;5.616;2022-11-23T01:24:08;59.29;41.75;78.08;;
64545;Laerm;50936;51.660;5.616;2022-11-23T01:26:37;46.87;41.30;60.95;;
64545;Laerm;50936;51.660;5.616;2022-11-23T01:29:04;63.53;41.89;82.64;;
64545;Laerm;50936;51.660;5.616;2022-11-23T01:31:31;53.41;41.53;77.86;;
64545;Laerm;50936;51.660;5.616;2022-11-23T01:34:03;54.03;41.46;77.42;;
64545;Laerm;50936;51.660;5.616;2022-11-23T01:36:33;52.47;41.30;76.35;;
64545;Laerm;50936;51.660;5.616;2022-11-23T01:39:02;57.64;41.22;82.53;;
64545;Laerm;50936;51.660;5.616;2022-11-23T01:41:35;55.86;41.53;76.80;;
64545;Laerm;50936;51.660;5.616;2022-11-23T01:44:30;64.56;41.22;88.80;;
64545;Laerm;50936;51.660;5.616;2022-11-23T01:47:04;55.28;41.82;75.36;;
64545;Laerm;50936;51.660;5.616;2022-11-23T01:49:42;61.23;41.75;81.87;;
64545;Laerm;50936;51.660;5.616;2022-11-23T01:52:18;50.50;41.68;70.14;;
64545;Laerm;50936;51.660;5.616;2022-11-23T01:54:49;56.28;41.53;77.12;;
64545;Laerm;50936;51.660;5.616;2022-11-23T01:57:25;56.89;41.89;76.63;;
64545;Laerm;50936;51.660;5.616;2022-11-23T01:59:56;56.49;42.09;73.89;;
64545;Laerm;50936;51.660;5.616;2022-11-23T02:02:27;52.70;41.68;71.42;;
64545;Laerm;50936;51.660;5.616;2022-11-23T02:04:58;54.80;41.61;73.54;;
64545;Laerm;50936;51.660;5.616;2022-11-23T02:07:27;54.87;41.75;73.99;;
64545;Laerm;50936;51.660;5.616;2022-11-23T02:09:54;55.54;42.29;73.88;;
64545;Laerm;50936;51.660;5.616;2022-11-23T02:12:21;49.82;41.30;69.79;;
64545;Laerm;50936;51.660;5.616;2022-11-23T02:14:48;55.32;41.38;73.79;;
64545;Laerm;50936;51.660;5.616;2022-11-23T02:17:18;53.06;41.06;73.13;;
64545;Laerm;50936;51.660;5.616;2022-11-23T02:23:00;58.74;41.46;78.14;;
64545;Laerm;50936;51.660;5.616;2022-11-23T02:28:23;58.76;41.68;79.39;;
64545;Laerm;50936;51.660;5.616;2022-11-23T02:30:53;56.69;41.30;74.23;;
64545;Laerm;50936;51.660;5.616;2022-11-23T02:33:22;67.19;41.82;85.91;;
64545;Laerm;50936;51.660;5.616;2022-11-23T02:35:58;57.65;41.96;77.30;;
64545;Laerm;50936;51.660;5.616;2022-11-23T02:38:30;57.41;41.89;74.31;;
64545;Laerm;50936;51.660;5.616;2022-11-23T02:40:59;55.67;41.89;86.18;;
64545;Laerm;50936;51.660;5.616;2022-11-23T02:43:26;60.23;41.75;81.39;;
64545;Laerm;50936;51.660;5.616;2022-11-23T02:46:01;66.18;42.22;87.52;;
64545;Laerm;50936;51.660;5.616;2022-11-23T02:48:29;56.53;41.82;80.20;;
64545;Laerm;50936;51.660;5.616;2022-11-23T02:50:56;59.05;42.03;83.17;;
64545;Laerm;50936;51.660;5.616;2022-11-23T02:53:23;55.25;42.65;74.84;;
64545;Laerm;50936;51.660;5.616;2022-11-23T02:55:51;63.72;42.03;85.69;;
64545;Laerm;50936;51.660;5.616;2022-11-23T02:58:18;59.51;41.61;86.19;;
64545;Laerm;50936;51.660;5.616;2022-11-23T03:00:45;52.07;41.22;72.48;;
64545;Laerm;50936;51.660;5.616;2022-11-23T03:03:15;57.53;40.89;83.41;;
64545;Laerm;50936;51.660;5.616;2022-11-23T03:05:42;60.12;41.22;79.01;;
64545;Laerm;50936;51.660;5.616;2022-11-23T03:08:09;46.05;41.22;60.72;;
64545;Laerm;50936;51.660;5.616;2022-11-23T03:10:38;55.36;41.30;77.55;;
64545;Laerm;50936;51.660;5.616;2022-11-23T03:13:05;53.67;41.82;72.36;;
64545;Laerm;50936;51.660;5.616;2022-11-23T03:15:34;49.57;41.46;67.49;;
64545;Laerm;50936;51.660;5.616;2022-11-23T03:18:03;52.26;41.06;67.61;;
64545;Laerm;50936;51.660;5.616;2022-11-23T03:20:31;55.88;42.16;77.34;;
64545;Laerm;50936;51.660;5.616;2022-11-23T03:22:57;59.62;41.82;81.50;;
64545;Laerm;50936;51.660;5.616;2022-11-23T03:25:25;53.61;42.29;78.78;;
64545;Laerm;50936;51.660;5.616;2022-11-23T03:27:54;61.79;42.22;83.62;;
64545;Laerm;50936;51.660;5.616;2022-11-23T03:30:21;58.42;42.00;77.24;;
64545;Laerm;50936;51.660;5.616;2022-11-23T03:32:48;59.16;42.35;80.68;;
64545;Laerm;50936;51.660;5.616;2022-11-23T03:35:17;59.79;42.59;79.86;;
64545;Laerm;50936;51.660;5.616;2022-11-23T03:38:02;55.68;42.53;72.24;;
64545;Laerm;50936;51.660;5.616;2022-11-23T03:40:30;45.91;41.68;62.30;;
64545;Laerm;50936;51.660;5.616;2022-11-23T03:43:17;52.60;42.35;70.36;;
64545;Laerm;50936;51.660;5.616;2022-11-23T03:45:45;51.70;41.61;69.42;;
64545;Laerm;50936;51.660;5.616;2022-11-23T03:48:13;60.85;41.53;87.04;;
64545;Laerm;50936;51.660;5.616;2022-11-23T03:50:40;54.29;42.76;69.46;;
64545;Laerm;50936;51.660;5.616;2022-11-23T03:53:07;48.95;41.53;66.57;;
64545;Laerm;50936;51.660;5.616;2022-11-23T03:55:34;55.22;41.38;76.44;;
64545;Laerm;50936;51.660;5.616;2022-11-23T03:58:04;53.15;42.65;69.06;;
64545;Laerm;50936;51.660;5.616;2022-11-23T04:00:34;59.20;41.75;78.93;;
64545;Laerm;50936;51.660;5.616;2022-11-23T04:03:02;54.31;42.35;68.95;;
64545;Laerm;50936;51.660;5.616;2022-11-23T04:05:48;49.86;41.89;69.63;;
64545;Laerm;50936;51.660;5.616;2022-11-23T04:08:34;54.07;41.96;71.56;;
64545;Laerm;50936;51.660;5.616;2022-11-23T04:11:09;57.97;41.82;76.88;;
64545;Laerm;50936;51.660;5.616;2022-11-23T04:13:39;49.84;42.35;66.10;;
64545;Laerm;50936;51.660;5.616;2022-11-23T04:16:07;48.32;42.35;66.62;;
64545;Laerm;50936;51.660;5.616;2022-11-23T04:18:36;48.79;41.53;67.09;;
64545;Laerm;50936;51.660;5.616;2022-11-23T04:21:03;58.60;43.14;77.24;;
64545;Laerm;50936;51.660;5.616;2022-11-23T04:23:30;57.82;42.71;70.21;;
64545;Laerm;50936;51.660;5.616;2022-11-23T04:25:57;53.43;42.22;74.74;;
64545;Laerm;50936;51.660;5.616;2022-11-23T04:28:24;52.56;41.89;67.26;;
64545;Laerm;50936;51.660;5.616;2022-11-23T04:30:51;58.37;42.71;70.67;;
64545;Laerm;50936;51.660;5.616;2022-11-23T04:33:18;51.62;42.71;67.32;;
64545;Laerm;50936;51.660;5.616;2022-11-23T04:35:45;58.75;43.29;77.36;;
64545;Laerm;50936;51.660;5.616;2022-11-23T04:38:13;58.27;44.31;77.14;;
64545;Laerm;50936;51.660;5.616;2022-11-23T04:40:40;51.14;42.65;68.00;;
64545;Laerm;50936;51.660;5.616;2022-11-23T04:43:10;51.74;42.88;67.42;;
64545;Laerm;50936;51.660;5.616;2022-11-23T04:45:39;53.73;42.71;69.45;;
64545;Laerm;50936;51.660;5.616;2022-11-23T04:48:12;59.95;42.35;72.98;;
64545;Laerm;50936;51.660;5.616;2022-11-23T04:50:40;58.64;43.34;73.58;;
64545;Laerm;50936;51.660;5.616;2022-11-23T04:53:15;56.25;43.14;74.24;;
64545;Laerm;50936;51.660;5.616;2022-11-23T04:55:46;57.39;43.49;72.10;;
64545;Laerm;50936;51.660;5.616;2022-11-23T04:58:14;58.98;42.59;79.09;;
64545;Laerm;50936;51.660;5.616;2022-11-23T05:00:41;63.82;45.23;85.01;;
64545;Laerm;50936;51.660;5.616;2022-11-23T05:03:10;61.14;43.29;81.94;;
64545;Laerm;50936;51.660;5.616;2022-11-23T05:05:40;59.92;43.94;72.61;;
64545;Laerm;50936;51.660;5.616;2022-11-23T05:08:08;59.09;42.88;73.77;;
64545;Laerm;50936;51.660;5.616;2022-11-23T05:10:50;58.95;43.77;70.08;;
64545;Laerm;50936;51.660;5.616;2022-11-23T05:13:17;59.67;44.11;78.20;;
64545;Laerm;50936;51.660;5.616;2022-11-23T05:15:46;61.14;43.81;74.50;;
64545;Laerm;50936;51.660;5.616;2022-11-23T05:18:19;61.80;46.02;77.34;;
64545;Laerm;50936;51.660;5.616;2022-11-23T05:20:47;59.14;43.24;73.37;;
64545;Laerm;50936;51.660;5.616;2022-11-23T05:23:15;57.09;42.47;80.47;;
64545;Laerm;50936;51.660;5.616;2022-11-23T05:25:44;59.94;44.94;78.76;;
64545;Laerm;50936;51.660;5.616;2022-11-23T05:28:17;64.40;47.24;77.87;;
64545;Laerm;50936;51.660;5.616;2022-11-23T05:31:06;61.54;45.17;81.70;;
64545;Laerm;50936;51.660;5.616;2022-11-23T05:33:33;63.13;45.48;79.87;;
64545;Laerm;50936;51.660;5.616;2022-11-23T05:36:02;62.86;44.47;85.75;;
64545;Laerm;50936;51.660;5.616;2022-11-23T05:38:35;59.75;43.24;75.68;;
64545;Laerm;50936;51.660;5.616;2022-11-23T05:41:07;61.20;45.62;78.02;;
64545;Laerm;50936;51.660;5.616;2022-11-23T05:43:37;61.50;47.57;80.19;;
64545;Laerm;50936;51.660;5.616;2022-11-23T05:46:06;61.89;46.66;78.22;;
64545;Laerm;50936;51.660;5.616;2022-11-23T05:48:35;59.89;45.11;78.80;;
64545;Laerm;50936;51.660;5.616;2022-11-23T05:51:07;61.03;48.07;72.53;;
64545;Laerm;50936;51.660;5.616;2022-11-23T05:53:40;63.93;48.36;78.74;;
64545;Laerm;50936;51.660;5.616;2022-11-23T05:56:18;63.24;47.42;81.45;;
64545;Laerm;50936;51.660;5.616;2022-11-23T05:59:05;60.53;45.83;71.21;;
64545;Laerm;50936;51.660;5.616;2022-11-23T06:01:35;63.73;46.43;84.85;;
64545;Laerm;50936;51.660;5.616;2022-11-23T06:04:04;61.58;46.05;79.16;;
64545;Laerm;50936;51.660;5.616;2022-11-23T06:06:38;60.88;45.60;80.20;;
64545;Laerm;50936;51.660;5.616;2022-11-23T06:09:04;61.92;50.25;74.40;;
64545;Laerm;50936;51.660;5.616;2022-11-23T06:11:33;62.52;48.13;75.74;;
64545;Laerm;50936;51.660;5.616;2022-11-23T06:14:07;63.20;48.70;79.59;;
64545;Laerm;50936;51.660;5.616;2022-11-23T06:16:40;63.03;48.00;88.31;;
64545;Laerm;50936;51.660;5.616;2022-11-23T06:19:19;63.58;50.06;86.96;;
64545;Laerm;50936;51.660;5.616;2022-11-23T06:21:49;64.11;52.04;78.14;;
64545;Laerm;50936;51.660;5.616;2022-11-23T06:24:23;62.82;48.64;76.77;;
64545;Laerm;50936;51.660;5.616;2022-11-23T06:27:10;63.93;46.18;80.29;;
64545;Laerm;50936;51.660;5.616;2022-11-23T06:29:46;60.50;46.13;73.14;;
64545;Laerm;50936;51.660;5.616;2022-11-23T06:32:14;65.64;52.40;82.49;;
64545;Laerm;50936;51.660;5.616;2022-11-23T06:34:41;62.93;48.63;72.65;;
64545;Laerm;50936;51.660;5.616;2022-11-23T06:37:09;64.57;50.61;86.01;;
64545;Laerm;50936;51.660;5.616;2022-11-23T06:39:36;68.61;50.86;85.41;;
64545;Laerm;50936;51.660;5.616;2022-11-23T06:42:04;62.23;47.81;76.47;;
64545;Laerm;50936;51.660;5.616;2022-11-23T06:44:51;63.11;47.78;75.28;;
64545;Laerm;50936;51.660;5.616;2022-11-23T06:47:20;62.63;54.27;75.41;;
64545;Laerm;50936;51.660;5.616;2022-11-23T06:49:52;62.91;51.84;71.99;;
64545;Laerm;50936;51.660;5.616;2022-11-23T06:52:25;62.46;52.43;74.57;;
64545;Laerm;50936;51.660;5.616;2022-11-23T06:54:52;61.73;51.59;74.65;;
64545;Laerm;50936;51.660;5.616;2022-11-23T06:57:21;65.76;55.06;83.35;;
64545;Laerm;50936;51.660;5.616;2022-11-23T06:59:48;65.00;51.51;83.40;;
64545;Laerm;50936;51.660;5.616;2022-11-23T07:02:20;65.15;52.39;81.96;;
64545;Laerm;50936;51.660;5.616;2022-11-23T07:04:47;65.99;50.04;81.51;;
64545;Laerm;50936;51.660;5.616;2022-11-23T07:07:16;65.64;58.30;84.41;;
64545;Laerm;50936;51.660;5.616;2022-11-23T07:09:49;64.81;52.53;80.09;;
64545;Laerm;50936;51.660;5.616;2022-11-23T07:12:21;64.89;49.32;75.54;;
64545;Laerm;50936;51.660;5.616;2022-11-23T07:14:48;64.08;51.22;72.30;;
64545;Laerm;50936;51.660;5.616;2022-11-23T07:17:15;67.64;54.00;84.02;;
64545;Laerm;50936;51.660;5.616;2022-11-23T07:19:43;65.01;52.91;75.38;;
64545;Laerm;50936;51.660;5.616;2022-11-23T07:22:10;68.29;53.19;84.23;;
64545;Laerm;50936;51.660;5.616;2022-11-23T07:24:39;68.02;51.79;89.59;;
64545;Laerm;50936;51.660;5.616;2022-11-23T07:27:12;64.91;53.42;81.47;;
64545;Laerm;50936;51.660;5.616;2022-11-23T07:29:39;67.52;52.52;91.46;;
64545;Laerm;50936;51.660;5.616;2022-11-23T07:32:06;64.89;53.79;77.96;;
64545;Laerm;50936;51.660;5.616;2022-11-23T07:34:34;65.43;52.40;79.04;;
64545;Laerm;50936;51.660;5.616;2022-11-23T07:37:01;65.91;55.35;78.07;;
64545;Laerm;50936;51.660;5.616;2022-11-23T07:39:32;65.19;53.04;77.83;;
64545;Laerm;50936;51.660;5.616;2022-11-23T07:42:19;66.12;53.45;81.40;;
64545;Laerm;50936;51.660;5.616;2022-11-23T07:45:07;63.86;53.24;77.44;;
64545;Laerm;50936;51.660;5.616;2022-11-23T07:47:37;65.48;55.45;80.78;;
64545;Laerm;50936;51.660;5.616;2022-11-23T07:50:09;65.43;54.40;79.12;;
64545;Laerm;50936;51.660;5.616;2022-11-23T07:52:37;65.45;54.46;79.41;;
64545;Laerm;50936;51.660;5.616;2022-11-23T07:55:05;65.36;53.98;76.68;;
64545;Laerm;50936;51.660;5.616;2022-11-23T07:57:32;69.26;55.39;84.59;;
64545;Laerm;50936;51.660;5.616;2022-11-23T07:59:58;65.48;51.78;81.27;;
64545;Laerm;50936;51.660;5.616;2022-11-23T08:02:25;69.75;54.05;90.31;;
64545;Laerm;50936;51.660;5.616;2022-11-23T08:04:52;69.20;52.36;84.94;;
64545;Laerm;50936;51.660;5.616;2022-11-23T08:07:19;65.92;54.34;80.04;;
64545;Laerm;50936;51.660;5.616;2022-11-23T08:09:46;66.55;52.48;82.10;;
64545;Laerm;50936;51.660;5.616;2022-11-23T08:12:12;63.87;53.43;77.54;;
64545;Laerm;50936;51.660;5.616;2022-11-23T08:14:39;65.53;53.55;80.20;;
64545;Laerm;50936;51.660;5.616;2022-11-23T08:17:06;68.82;49.36;86.64;;
64545;Laerm;50936;51.660;5.616;2022-11-23T08:19:33;66.44;52.73;81.62;;
64545;Laerm;50936;51.660;5.616;2022-11-23T08:22:00;65.72;52.24;84.47;;
64545;Laerm;50936;51.660;5.616;2022-11-23T08:24:27;66.56;51.76;84.54;;
64545;Laerm;50936;51.660;5.616;2022-11-23T08:26:54;68.72;53.93;87.36;;
64545;Laerm;50936;51.660;5.616;2022-11-23T08:29:21;65.92;53.25;79.71;;
64545;Laerm;50936;51.660;5.616;2022-11-23T08:31:48;67.64;52.56;85.66;;
64545;Laerm;50936;51.660;5.616;2022-11-23T08:34:15;70.20;50.56;88.86;;
64545;Laerm;50936;51.660;5.616;2022-11-23T08:36:44;63.53;51.68;80.46;;
64545;Laerm;50936;51.660;5.616;2022-11-23T08:39:11;65.91;54.89;82.99;;
64545;Laerm;50936;51.660;5.616;2022-11-23T08:41:40;67.01;52.06;85.52;;
64545;Laerm;50936;51.660;5.616;2022-11-23T08:44:07;68.96;53.02;89.46;;
64545;Laerm;50936;51.660;5.616;2022-11-23T08:46:37;67.37;54.66;83.12;;
64545;Laerm;50936;51.660;5.616;2022-11-23T08:49:05;65.13;54.60;80.50;;
64545;Laerm;50936;51.660;5.616;2022-11-23T08:51:34;70.12;54.06;87.79;;
64545;Laerm;50936;51.660;5.616;2022-11-23T08:54:01;66.44;52.28;83.21;;
64545;Laerm;50936;51.660;5.616;2022-11-23T08:56:28;72.45;55.75;91.87;;
64545;Laerm;50936;51.660;5.616;2022-11-23T08:58:55;70.71;54.23;87.60;;
64545;Laerm;50936;51.660;5.616;2022-11-23T09:01:22;71.49;55.36;90.05;;
64545;Laerm;50936;51.660;5.616;2022-11-23T09:03:49;73.92;51.91;93.54;;
64545;Laerm;50936;51.660;5.616;2022-11-23T09:06:16;72.83;57.50;93.46;;
64545;Laerm;50936;51.660;5.616;2022-11-23T09:08:43;71.51;52.79;91.01;;
64545;Laerm;50936;51.660;5.616;2022-11-23T09:11:12;69.59;53.87;89.14;;
64545;Laerm;50936;51.660;5.616;2022-11-23T09:13:39;75.83;52.92;93.22;;
64545;Laerm;50936;51.660;5.616;2022-11-23T09:16:07;77.42;53.79;98.14;;
64545;Laerm;50936;51.660;5.616;2022-11-23T09:18:34;75.69;54.02;97.55;;
64545;Laerm;50936;51.660;5.616;2022-11-23T09:21:04;74.64;50.25;93.80;;
64545;Laerm;50936;51.660;5.616;2022-11-23T09:23:31;71.25;52.41;90.76;;
64545;Laerm;50936;51.660;5.616;2022-11-23T09:26:02;73.23;54.32;91.84;;
64545;Laerm;50936;51.660;5.616;2022-11-23T09:28:31;66.78;54.04;82.33;;
64545;Laerm;50936;51.660;5.616;2022-11-23T09:31:03;73.71;56.64;90.50;;
64545;Laerm;50936;51.660;5.616;2022-11-23T09:33:30;70.89;55.79;87.69;;
64545;Laerm;50936;51.660;5.616;2022-11-23T09:35:59;71.40;56.20;88.38;;
64545;Laerm;50936;51.660;5.616;2022-11-23T09:38:27;69.65;54.52;84.56;;
64545;Laerm;50936;51.660;5.616;2022-11-23T09:42:11;71.76;55.81;93.90;;
64545;Laerm;50936;51.660;5.616;2022-11-23T09:45:07;65.44;50.05;83.35;;
64545;Laerm;50936;51.660;5.616;2022-11-23T09:50:23;70.84;55.95;89.35;;
64545;Laerm;50936;51.660;5.616;2022-11-23T09:52:53;75.51;56.78;96.67;;
64545;Laerm;50936;51.660;5.616;2022-11-23T09:55:43;67.20;55.44;88.35;;
64545;Laerm;50936;51.660;5.616;2022-11-23T09:58:17;69.35;52.06;87.11;;
64545;Laerm;50936;51.660;5.616;2022-11-23T10:00:59;76.41;56.89;94.09;;
64545;Laerm;50936;51.660;5.616;2022-11-23T10:03:34;77.89;61.81;98.38;;
64545;Laerm;50936;51.660;5.616;2022-11-23T10:09:11;72.48;58.50;89.13;;
64545;Laerm;50936;51.660;5.616;2022-11-23T10:14:56;77.63;55.32;98.04;;
64545;Laerm;50936;51.660;5.616;2022-11-23T10:20:55;71.39;53.52;89.87;;
64545;Laerm;50936;51.660;5.616;2022-11-23T10:26:16;69.11;56.33;89.68;;
64545;Laerm;50936;51.660;5.616;2022-11-23T10:28:46;66.82;56.22;83.07;;
64545;Laerm;50936;51.660;5.616;2022-11-23T10:31:23;65.06;50.65;81.84;;
64545;Laerm;50936;51.660;5.616;2022-11-23T10:34:03;67.47;53.10;88.16;;
64545;Laerm;50936;51.660;5.616;2022-11-23T10:36:35;71.53;56.98;89.11;;
64545;Laerm;50936;51.660;5.616;2022-11-23T10:39:21;75.26;55.52;93.20;;
64545;Laerm;50936;51.660;5.616;2022-11-23T10:41:50;72.05;53.05;87.27;;
64545;Laerm;50936;51.660;5.616;2022-11-23T10:44:33;73.07;55.28;94.57;;
64545;Laerm;50936;51.660;5.616;2022-11-23T10:47:03;68.32;58.14;82.89;;
64545;Laerm;50936;51.660;5.616;2022-11-23T10:49:33;72.39;54.79;91.96;;
64545;Laerm;50936;51.660;5.616;2022-11-23T10:52:31;73.66;53.78;93.50;;
64545;Laerm;50936;51.660;5.616;2022-11-23T10:55:04;67.05;54.77;78.11;;
64545;Laerm;50936;51.660;5.616;2022-11-23T10:57:50;71.08;55.07;93.02;;
64545;Laerm;50936;51.660;5.616;2022-11-23T11:00:22;66.84;55.47;79.20;;
64545;Laerm;50936;51.660;5.616;2022-11-23T11:02:58;73.41;56.23;90.68;;
64545;Laerm;50936;51.660;5.616;2022-11-23T11:05:37;68.40;56.00;85.33;;
64545;Laerm;50936;51.660;5.616;2022-11-23T11:08:32;71.36;56.04;90.60;;
64545;Laerm;50936;51.660;5.616;2022-11-23T11:11:09;77.85;55.10;97.08;;
64545;Laerm;50936;51.660;5.616;2022-11-23T11:13:47;67.26;54.76;85.44;;
64545;Laerm;50936;51.660;5.616;2022-11-23T11:16:25;78.51;56.95;100.15;;
64545;Laerm;50936;51.660;5.616;2022-11-23T11:18:52;68.52;55.52;87.00;;
64545;Laerm;50936;51.660;5.616;2022-11-23T11:21:23;72.81;56.17;90.75;;
64545;Laerm;50936;51.660;5.616;2022-11-23T11:24:01;74.29;59.96;95.68;;
64545;Laerm;50936;51.660;5.616;2022-11-23T11:26:33;71.97;50.56;91.85;;
64545;Laerm;50936;51.660;5.616;2022-11-23T11:29:06;78.99;55.02;100.50;;
64545;Laerm;50936;51.660;5.616;2022-11-23T11:34:28;70.36;53.06;86.84;;
64545;Laerm;50936;51.660;5.616;2022-11-23T11:37:15;69.46;51.26;86.93;;
64545;Laerm;50936;51.660;5.616;2022-11-23T11:46:01;74.14;56.12;93.39;;
64545;Laerm;50936;51.660;5.616;2022-11-23T11:51:40;67.49;54.90;82.24;;
64545;Laerm;50936;51.660;5.616;2022-11-23T11:54:27;70.54;56.37;89.36;;
64545;Laerm;50936;51.660;5.616;2022-11-23T11:57:25;76.58;52.67;96.13;;
64545;Laerm;50936;51.660;5.616;2022-11-23T11:59:56;70.54;54.30;92.20;;
64545;Laerm;50936;51.660;5.616;2022-11-23T12:02:29;75.32;57.37;95.53;;
64545;Laerm;50936;51.660;5.616;2022-11-23T12:05:54;71.14;51.48;91.97;;
64545;Laerm;50936;51.660;5.616;2022-11-23T12:08:49;70.64;55.76;92.16;;
64545;Laerm;50936;51.660;5.616;2022-11-23T12:11:18;75.43;56.81;95.65;;
64545;Laerm;50936;51.660;5.616;2022-11-23T12:13:45;70.34;55.79;91.35;;
64545;Laerm;50936;51.660;5.616;2022-11-23T12:16:25;72.30;54.22;90.04;;
64545;Laerm;50936;51.660;5.616;2022-11-23T12:19:18;68.16;55.05;87.44;;
64545;Laerm;50936;51.660;5.616;2022-11-23T12:24:58;65.69;55.72;82.28;;
64545;Laerm;50936;51.660;5.616;2022-11-23T12:30:28;63.15;53.58;78.09;;
64545;Laerm;50936;51.660;5.616;2022-11-23T12:33:07;71.95;55.36;92.89;;
64545;Laerm;50936;51.660;5.616;2022-11-23T12:36:20;65.07;56.92;79.81;;
64545;Laerm;50936;51.660;5.616;2022-11-23T12:42:24;64.32;54.39;81.96;;
64545;Laerm;50936;51.660;5.616;2022-11-23T12:50:52;65.13;57.38;81.39;;
64545;Laerm;50936;51.660;5.616;2022-11-23T12:56:52;64.93;55.21;83.96;;
64545;Laerm;50936;51.660;5.616;2022-11-23T12:59:23;67.86;54.78;87.33;;
64545;Laerm;50936;51.660;5.616;2022-11-23T13:02:01;63.30;53.17;73.33;;
64545;Laerm;50936;51.660;5.616;2022-11-23T13:07:51;66.46;55.98;82.36;;
64545;Laerm;50936;51.660;5.616;2022-11-23T13:18:49;64.28;55.62;81.20;;
64545;Laerm;50936;51.660;5.616;2022-11-23T13:21:36;67.04;56.66;82.33;;
64545;Laerm;50936;51.660;5.616;2022-11-23T13:24:31;65.49;55.53;79.54;;
64545;Laerm;50936;51.660;5.616;2022-11-23T13:29:54;64.78;54.04;75.75;;
64545;Laerm;50936;51.660;5.616;2022-11-23T13:40:35;63.91;54.56;78.59;;
64545;Laerm;50936;51.660;5.616;2022-11-23T13:43:19;65.38;54.87;82.41;;
64545;Laerm;50936;51.660;5.616;2022-11-23T13:46:35;63.99;53.57;79.92;;
64545;Laerm;50936;51.660;5.616;2022-11-23T13:49:04;66.12;56.56;83.35;;
64545;Laerm;50936;51.660;5.616;2022-11-23T13:52:22;65.60;54.40;87.58;;
64545;Laerm;50936;51.660;5.616;2022-11-23T14:00:49;66.70;57.93;84.65;;
64545;Laerm;50936;51.660;5.616;2022-11-23T14:06:49;83.20;58.98;103.71;;
64545;Laerm;50936;51.660;5.616;2022-11-23T14:09:35;75.84;57.17;94.64;;
64545;Laerm;50936;51.660;5.616;2022-11-23T14:15:23;71.48;63.66;89.94;;
64545;Laerm;50936;51.660;5.616;2022-11-23T14:18:33;74.04;65.36;87.44;;
64545;Laerm;50936;51.660;5.616;2022-11-23T14:21:13;72.02;63.04;82.90;;
64545;Laerm;50936;51.660;5.616;2022-11-23T14:24:02;71.95;60.48;87.92;;
64545;Laerm;50936;51.660;5.616;2022-11-23T14:34:13;70.75;61.17;84.00;;
64545;Laerm;50936;51.660;5.616;2022-11-23T14:40:48;69.45;61.58;80.32;;
64545;Laerm;50936;51.660;5.616;2022-11-23T14:43:20;70.78;62.50;82.34;;
64545;Laerm;50936;51.660;5.616;2022-11-23T14:45:47;71.21;62.72;80.36;;
64545;Laerm;50936;51.660;5.616;2022-11-23T14:48:31;72.02;62.31;88.22;;
64545;Laerm;50936;51.660;5.616;2022-11-23T14:51:02;72.95;61.44;89.64;;
64545;Laerm;50936;51.660;5.616;2022-11-23T14:53:40;71.40;63.57;82.61;;
64545;Laerm;50936;51.660;5.616;2022-11-23T14:56:33;72.33;64.52;83.51;;
64545;Laerm;50936;51.660;5.616;2022-11-23T14:59:07;71.22;61.76;79.29;;
64545;Laerm;50936;51.660;5.616;2022-11-23T15:01:36;71.39;62.66;82.86;;
64545;Laerm;50936;51.660;5.616;2022-11-23T15:04:09;71.70;63.12;79.88;;
64545;Laerm;50936;51.660;5.616;2022-11-23T15:06:50;71.56;61.75;84.93;;
64545;Laerm;50936;51.660;5.616;2022-11-23T15:10:10;71.13;60.59;81.76;;
64545;Laerm;50936;51.660;5.616;2022-11-23T15:12:45;70.69;59.24;79.27;;
64545;Laerm;50936;51.660;5.616;2022-11-23T15:15:28;71.84;63.11;79.26;;
64545;Laerm;50936;51.660;5.616;2022-11-23T15:18:03;71.13;62.02;79.18;;
64545;Laerm;50936;51.660;5.616;2022-11-23T15:20:41;71.53;61.84;86.34;;
64545;Laerm;50936;51.660;5.616;2022-11-23T15:23:27;71.49;61.82;82.98;;
64545;Laerm;50936;51.660;5.616;2022-11-23T15:25:59;70.68;61.21;79.51;;
64545;Laerm;50936;51.660;5.616;2022-11-23T15:28:31;71.41;60.73;79.07;;
64545;Laerm;50936;51.660;5.616;2022-11-23T15:31:00;70.99;61.74;78.69;;
64545;Laerm;50936;51.660;5.616;2022-11-23T15:33:31;70.09;59.84;78.83;;
64545;Laerm;50936;51.660;5.616;2022-11-23T15:35:58;67.18;59.05;77.24;;
64545;Laerm;50936;51.660;5.616;2022-11-23T15:38:26;70.88;62.18;79.07;;
64545;Laerm;50936;51.660;5.616;2022-11-23T15:40:53;68.86;60.00;78.12;;
64545;Laerm;50936;51.660;5.616;2022-11-23T15:43:30;69.02;59.40;76.58;;
64545;Laerm;50936;51.660;5.616;2022-11-23T15:46:03;69.01;62.51;77.88;;
64545;Laerm;50936;51.660;5.616;2022-11-23T15:48:34;71.06;61.70;90.48;;
64545;Laerm;50936;51.660;5.616;2022-11-23T15:51:05;67.80;59.01;75.83;;
64545;Laerm;50936;51.660;5.616;2022-11-23T15:53:53;68.48;60.39;80.50;;
64545;Laerm;50936;51.660;5.616;2022-11-23T15:56:33;68.22;58.10;80.60;;